sensor_id;sensor_type;location;lat;lon;timestamp;P1;durP1;ratioP1;P2;durP2;ratioP2
55134;SDS011;41031;44.750;11.308;2022-12-29T00:00:07;93.13;;;47.40;;
55134;SDS011;41031;44.750;11.308;2022-12-29T00:02:39;108.07;;;48.30;;
55134;SDS011;41031;44.750;11.308;2022-12-29T00:05:07;94.57;;;45.90;;
55134;SDS011;41031;44.750;11.308;2022-12-29T00:07:34;91.33;;;45.57;;
55134;SDS011;41031;44.750;11.308;2022-12-29T00:10:01;98.57;;;49.23;;
55134;SDS011;41031;44.750;11.308;2022-12-29T00:12:29;97.10;;;46.37;;
55134;SDS011;41031;44.750;11.308;2022-12-29T00:15:16;101.83;;;46.13;;
55134;SDS011;41031;44.750;11.308;2022-12-29T00:18:01;100.77;;;45.77;;
55134;SDS011;41031;44.750;11.308;2022-12-29T00:20:29;108.67;;;49.27;;
55134;SDS011;41031;44.750;11.308;2022-12-29T00:23:17;106.83;;;52.00;;
55134;SDS011;41031;44.750;11.308;2022-12-29T00:26:03;111.57;;;49.80;;
55134;SDS011;41031;44.750;11.308;2022-12-29T00:28:53;101.50;;;48.30;;
55134;SDS011;41031;44.750;11.308;2022-12-29T00:31:39;105.50;;;49.07;;
55134;SDS011;41031;44.750;11.308;2022-12-29T00:34:24;124.10;;;50.40;;
55134;SDS011;41031;44.750;11.308;2022-12-29T00:37:10;112.20;;;48.90;;
55134;SDS011;41031;44.750;11.308;2022-12-29T00:39:37;105.57;;;52.50;;
55134;SDS011;41031;44.750;11.308;2022-12-29T00:42:23;110.13;;;52.27;;
55134;SDS011;41031;44.750;11.308;2022-12-29T00:45:09;117.80;;;50.80;;
55134;SDS011;41031;44.750;11.308;2022-12-29T00:47:36;124.63;;;51.97;;
55134;SDS011;41031;44.750;11.308;2022-12-29T00:50:03;102.77;;;48.57;;
55134;SDS011;41031;44.750;11.308;2022-12-29T00:52:30;103.63;;;50.60;;
55134;SDS011;41031;44.750;11.308;2022-12-29T00:54:57;105.57;;;48.53;;
55134;SDS011;41031;44.750;11.308;2022-12-29T00:57:24;114.60;;;52.20;;
55134;SDS011;41031;44.750;11.308;2022-12-29T00:59:51;108.67;;;52.23;;
55134;SDS011;41031;44.750;11.308;2022-12-29T01:02:18;107.73;;;50.53;;
55134;SDS011;41031;44.750;11.308;2022-12-29T01:04:45;101.23;;;49.93;;
55134;SDS011;41031;44.750;11.308;2022-12-29T01:07:15;112.63;;;53.53;;
55134;SDS011;41031;44.750;11.308;2022-12-29T01:09:43;113.90;;;51.20;;
55134;SDS011;41031;44.750;11.308;2022-12-29T01:12:29;114.03;;;52.87;;
55134;SDS011;41031;44.750;11.308;2022-12-29T01:15:09;113.57;;;50.57;;
55134;SDS011;41031;44.750;11.308;2022-12-29T01:17:37;107.50;;;49.67;;
55134;SDS011;41031;44.750;11.308;2022-12-29T01:20:04;108.20;;;49.73;;
55134;SDS011;41031;44.750;11.308;2022-12-29T01:22:32;106.13;;;50.00;;
55134;SDS011;41031;44.750;11.308;2022-12-29T01:24:59;115.77;;;50.37;;
55134;SDS011;41031;44.750;11.308;2022-12-29T01:27:26;95.47;;;46.80;;
55134;SDS011;41031;44.750;11.308;2022-12-29T01:29:53;94.03;;;47.37;;
55134;SDS011;41031;44.750;11.308;2022-12-29T01:32:20;107.97;;;48.17;;
55134;SDS011;41031;44.750;11.308;2022-12-29T01:34:47;106.13;;;49.07;;
55134;SDS011;41031;44.750;11.308;2022-12-29T01:37:14;108.87;;;48.93;;
55134;SDS011;41031;44.750;11.308;2022-12-29T01:39:43;110.53;;;48.70;;
55134;SDS011;41031;44.750;11.308;2022-12-29T01:42:14;90.27;;;43.47;;
55134;SDS011;41031;44.750;11.308;2022-12-29T01:44:47;81.97;;;43.07;;
55134;SDS011;41031;44.750;11.308;2022-12-29T01:47:17;98.13;;;46.20;;
55134;SDS011;41031;44.750;11.308;2022-12-29T01:49:58;91.03;;;46.23;;
55134;SDS011;41031;44.750;11.308;2022-12-29T01:52:29;94.17;;;46.53;;
55134;SDS011;41031;44.750;11.308;2022-12-29T01:55:01;105.97;;;47.90;;
55134;SDS011;41031;44.750;11.308;2022-12-29T01:57:31;100.37;;;47.23;;
55134;SDS011;41031;44.750;11.308;2022-12-29T02:00:06;109.70;;;49.83;;
55134;SDS011;41031;44.750;11.308;2022-12-29T02:02:40;111.33;;;49.77;;
55134;SDS011;41031;44.750;11.308;2022-12-29T02:05:13;117.33;;;49.93;;
55134;SDS011;41031;44.750;11.308;2022-12-29T02:07:44;109.50;;;50.23;;
55134;SDS011;41031;44.750;11.308;2022-12-29T02:10:13;102.50;;;48.57;;
55134;SDS011;41031;44.750;11.308;2022-12-29T02:12:40;108.77;;;49.20;;
55134;SDS011;41031;44.750;11.308;2022-12-29T02:15:07;110.70;;;47.27;;
55134;SDS011;41031;44.750;11.308;2022-12-29T02:26:38;106.77;;;48.60;;
55134;SDS011;41031;44.750;11.308;2022-12-29T02:35:10;122.80;;;50.67;;
55134;SDS011;41031;44.750;11.308;2022-12-29T02:37:42;105.43;;;48.90;;
55134;SDS011;41031;44.750;11.308;2022-12-29T02:43:11;110.50;;;49.03;;
55134;SDS011;41031;44.750;11.308;2022-12-29T02:48:57;119.73;;;49.00;;
55134;SDS011;41031;44.750;11.308;2022-12-29T02:51:31;127.43;;;51.73;;
55134;SDS011;41031;44.750;11.308;2022-12-29T02:54:13;100.53;;;47.60;;
55134;SDS011;41031;44.750;11.308;2022-12-29T02:57:01;98.57;;;45.17;;
55134;SDS011;41031;44.750;11.308;2022-12-29T02:59:28;109.53;;;47.53;;
55134;SDS011;41031;44.750;11.308;2022-12-29T03:10:09;97.23;;;45.43;;
55134;SDS011;41031;44.750;11.308;2022-12-29T03:16:26;108.90;;;49.93;;
55134;SDS011;41031;44.750;11.308;2022-12-29T03:19:08;110.33;;;50.20;;
55134;SDS011;41031;44.750;11.308;2022-12-29T03:21:59;101.40;;;47.57;;
55134;SDS011;41031;44.750;11.308;2022-12-29T03:25:03;122.50;;;50.03;;
55134;SDS011;41031;44.750;11.308;2022-12-29T03:27:47;119.73;;;51.80;;
55134;SDS011;41031;44.750;11.308;2022-12-29T03:30:39;107.63;;;50.00;;
55134;SDS011;41031;44.750;11.308;2022-12-29T03:33:10;127.17;;;50.77;;
55134;SDS011;41031;44.750;11.308;2022-12-29T03:35:42;123.43;;;50.17;;
55134;SDS011;41031;44.750;11.308;2022-12-29T03:38:17;106.83;;;52.03;;
55134;SDS011;41031;44.750;11.308;2022-12-29T03:40:50;130.47;;;53.37;;
55134;SDS011;41031;44.750;11.308;2022-12-29T03:43:23;112.10;;;48.97;;
55134;SDS011;41031;44.750;11.308;2022-12-29T03:45:52;104.30;;;49.83;;
55134;SDS011;41031;44.750;11.308;2022-12-29T03:48:19;100.60;;;47.50;;
55134;SDS011;41031;44.750;11.308;2022-12-29T03:50:48;101.17;;;45.23;;
55134;SDS011;41031;44.750;11.308;2022-12-29T03:53:16;108.50;;;48.13;;
55134;SDS011;41031;44.750;11.308;2022-12-29T03:55:44;102.93;;;46.63;;
55134;SDS011;41031;44.750;11.308;2022-12-29T03:58:11;99.50;;;45.80;;
55134;SDS011;41031;44.750;11.308;2022-12-29T04:00:53;101.93;;;46.03;;
55134;SDS011;41031;44.750;11.308;2022-12-29T04:03:20;99.73;;;46.07;;
55134;SDS011;41031;44.750;11.308;2022-12-29T04:05:47;101.17;;;46.13;;
55134;SDS011;41031;44.750;11.308;2022-12-29T04:08:14;101.17;;;47.07;;
55134;SDS011;41031;44.750;11.308;2022-12-29T04:10:41;96.17;;;46.10;;
55134;SDS011;41031;44.750;11.308;2022-12-29T04:13:08;115.40;;;45.30;;
55134;SDS011;41031;44.750;11.308;2022-12-29T04:15:35;90.87;;;41.87;;
55134;SDS011;41031;44.750;11.308;2022-12-29T04:18:03;129.43;;;46.87;;
55134;SDS011;41031;44.750;11.308;2022-12-29T04:20:31;121.63;;;50.37;;
55134;SDS011;41031;44.750;11.308;2022-12-29T04:23:17;125.30;;;51.80;;
55134;SDS011;41031;44.750;11.308;2022-12-29T04:25:45;118.10;;;50.87;;
55134;SDS011;41031;44.750;11.308;2022-12-29T04:28:14;111.60;;;51.43;;
55134;SDS011;41031;44.750;11.308;2022-12-29T04:30:46;124.03;;;51.97;;
55134;SDS011;41031;44.750;11.308;2022-12-29T04:33:20;117.07;;;50.47;;
55134;SDS011;41031;44.750;11.308;2022-12-29T04:35:48;106.10;;;49.13;;
55134;SDS011;41031;44.750;11.308;2022-12-29T04:38:16;102.63;;;49.00;;
55134;SDS011;41031;44.750;11.308;2022-12-29T04:40:45;111.07;;;51.33;;
55134;SDS011;41031;44.750;11.308;2022-12-29T04:43:13;118.97;;;52.13;;
55134;SDS011;41031;44.750;11.308;2022-12-29T04:45:59;113.63;;;49.13;;
55134;SDS011;41031;44.750;11.308;2022-12-29T04:48:33;107.40;;;50.90;;
55134;SDS011;41031;44.750;11.308;2022-12-29T04:51:10;125.87;;;50.90;;
55134;SDS011;41031;44.750;11.308;2022-12-29T04:53:38;114.13;;;51.57;;
55134;SDS011;41031;44.750;11.308;2022-12-29T04:56:06;114.50;;;51.50;;
55134;SDS011;41031;44.750;11.308;2022-12-29T04:58:33;122.00;;;52.53;;
55134;SDS011;41031;44.750;11.308;2022-12-29T05:01:02;116.17;;;50.07;;
55134;SDS011;41031;44.750;11.308;2022-12-29T05:03:29;128.70;;;53.13;;
55134;SDS011;41031;44.750;11.308;2022-12-29T05:05:57;123.80;;;54.73;;
55134;SDS011;41031;44.750;11.308;2022-12-29T05:08:24;111.73;;;50.90;;
55134;SDS011;41031;44.750;11.308;2022-12-29T05:10:56;115.73;;;51.47;;
55134;SDS011;41031;44.750;11.308;2022-12-29T05:13:24;117.20;;;51.27;;
55134;SDS011;41031;44.750;11.308;2022-12-29T05:15:52;118.37;;;48.70;;
55134;SDS011;41031;44.750;11.308;2022-12-29T05:18:22;113.57;;;49.37;;
55134;SDS011;41031;44.750;11.308;2022-12-29T05:20:49;115.23;;;51.37;;
55134;SDS011;41031;44.750;11.308;2022-12-29T05:23:18;121.33;;;49.27;;
55134;SDS011;41031;44.750;11.308;2022-12-29T05:25:51;107.33;;;49.37;;
55134;SDS011;41031;44.750;11.308;2022-12-29T05:28:37;113.23;;;48.07;;
55134;SDS011;41031;44.750;11.308;2022-12-29T05:31:10;109.97;;;51.53;;
55134;SDS011;41031;44.750;11.308;2022-12-29T05:33:37;122.20;;;51.93;;
55134;SDS011;41031;44.750;11.308;2022-12-29T05:36:05;115.97;;;50.20;;
55134;SDS011;41031;44.750;11.308;2022-12-29T05:38:36;121.73;;;52.30;;
55134;SDS011;41031;44.750;11.308;2022-12-29T05:41:03;103.53;;;47.33;;
55134;SDS011;41031;44.750;11.308;2022-12-29T05:43:53;113.37;;;50.90;;
55134;SDS011;41031;44.750;11.308;2022-12-29T05:46:37;115.40;;;50.77;;
55134;SDS011;41031;44.750;11.308;2022-12-29T05:49:16;116.67;;;50.50;;
55134;SDS011;41031;44.750;11.308;2022-12-29T05:51:54;108.10;;;49.47;;
55134;SDS011;41031;44.750;11.308;2022-12-29T05:54:21;113.87;;;49.80;;
55134;SDS011;41031;44.750;11.308;2022-12-29T05:56:49;107.13;;;50.03;;
55134;SDS011;41031;44.750;11.308;2022-12-29T05:59:16;116.63;;;49.37;;
55134;SDS011;41031;44.750;11.308;2022-12-29T06:01:43;113.20;;;51.57;;
55134;SDS011;41031;44.750;11.308;2022-12-29T06:04:11;121.67;;;51.77;;
55134;SDS011;41031;44.750;11.308;2022-12-29T06:06:38;109.93;;;49.43;;
55134;SDS011;41031;44.750;11.308;2022-12-29T06:09:12;120.30;;;52.03;;
55134;SDS011;41031;44.750;11.308;2022-12-29T06:11:39;111.07;;;50.67;;
55134;SDS011;41031;44.750;11.308;2022-12-29T06:14:07;124.83;;;51.47;;
55134;SDS011;41031;44.750;11.308;2022-12-29T06:16:34;104.73;;;48.60;;
55134;SDS011;41031;44.750;11.308;2022-12-29T06:19:04;106.33;;;49.93;;
55134;SDS011;41031;44.750;11.308;2022-12-29T06:21:31;110.83;;;48.83;;
55134;SDS011;41031;44.750;11.308;2022-12-29T06:24:00;110.50;;;48.97;;
55134;SDS011;41031;44.750;11.308;2022-12-29T06:26:27;105.03;;;49.33;;
55134;SDS011;41031;44.750;11.308;2022-12-29T06:28:55;108.13;;;49.93;;
55134;SDS011;41031;44.750;11.308;2022-12-29T06:31:22;103.60;;;49.87;;
55134;SDS011;41031;44.750;11.308;2022-12-29T06:33:49;109.90;;;52.63;;
55134;SDS011;41031;44.750;11.308;2022-12-29T06:36:16;121.53;;;53.97;;
55134;SDS011;41031;44.750;11.308;2022-12-29T06:38:43;115.07;;;51.20;;
55134;SDS011;41031;44.750;11.308;2022-12-29T06:41:11;109.00;;;48.60;;
55134;SDS011;41031;44.750;11.308;2022-12-29T06:43:59;114.03;;;53.23;;
55134;SDS011;41031;44.750;11.308;2022-12-29T06:46:44;115.27;;;51.60;;
55134;SDS011;41031;44.750;11.308;2022-12-29T06:49:11;113.03;;;49.90;;
55134;SDS011;41031;44.750;11.308;2022-12-29T06:51:38;119.73;;;51.03;;
55134;SDS011;41031;44.750;11.308;2022-12-29T06:54:05;112.03;;;50.73;;
55134;SDS011;41031;44.750;11.308;2022-12-29T06:56:32;122.50;;;52.23;;
55134;SDS011;41031;44.750;11.308;2022-12-29T06:58:59;112.47;;;49.37;;
55134;SDS011;41031;44.750;11.308;2022-12-29T07:01:29;128.33;;;53.03;;
55134;SDS011;41031;44.750;11.308;2022-12-29T07:03:56;112.83;;;51.17;;
55134;SDS011;41031;44.750;11.308;2022-12-29T07:06:23;101.83;;;49.57;;
55134;SDS011;41031;44.750;11.308;2022-12-29T07:08:51;102.20;;;51.17;;
55134;SDS011;41031;44.750;11.308;2022-12-29T07:11:21;105.30;;;50.27;;
55134;SDS011;41031;44.750;11.308;2022-12-29T07:13:48;104.93;;;49.50;;
55134;SDS011;41031;44.750;11.308;2022-12-29T07:16:16;107.90;;;50.43;;
55134;SDS011;41031;44.750;11.308;2022-12-29T07:18:43;105.90;;;50.40;;
55134;SDS011;41031;44.750;11.308;2022-12-29T07:21:10;110.53;;;51.37;;
55134;SDS011;41031;44.750;11.308;2022-12-29T07:23:38;111.00;;;51.80;;
55134;SDS011;41031;44.750;11.308;2022-12-29T07:26:06;113.87;;;51.90;;
55134;SDS011;41031;44.750;11.308;2022-12-29T07:28:35;101.50;;;51.10;;
55134;SDS011;41031;44.750;11.308;2022-12-29T07:31:02;116.13;;;52.67;;
55134;SDS011;41031;44.750;11.308;2022-12-29T07:33:29;116.40;;;52.90;;
55134;SDS011;41031;44.750;11.308;2022-12-29T07:35:58;108.80;;;52.97;;
55134;SDS011;41031;44.750;11.308;2022-12-29T07:38:25;114.90;;;51.70;;
55134;SDS011;41031;44.750;11.308;2022-12-29T07:40:55;98.50;;;50.53;;
55134;SDS011;41031;44.750;11.308;2022-12-29T07:43:23;104.00;;;52.00;;
55134;SDS011;41031;44.750;11.308;2022-12-29T07:46:11;99.83;;;49.63;;
55134;SDS011;41031;44.750;11.308;2022-12-29T07:48:58;94.27;;;49.77;;
55134;SDS011;41031;44.750;11.308;2022-12-29T07:51:25;92.70;;;48.93;;
55134;SDS011;41031;44.750;11.308;2022-12-29T07:53:52;99.30;;;49.53;;
55134;SDS011;41031;44.750;11.308;2022-12-29T07:56:19;91.50;;;47.50;;
55134;SDS011;41031;44.750;11.308;2022-12-29T07:58:46;95.30;;;47.50;;
55134;SDS011;41031;44.750;11.308;2022-12-29T08:01:13;96.53;;;48.57;;
55134;SDS011;41031;44.750;11.308;2022-12-29T08:03:40;90.67;;;50.00;;
55134;SDS011;41031;44.750;11.308;2022-12-29T08:06:10;95.53;;;47.63;;
55134;SDS011;41031;44.750;11.308;2022-12-29T08:08:38;96.33;;;47.37;;
55134;SDS011;41031;44.750;11.308;2022-12-29T08:11:05;95.07;;;47.43;;
55134;SDS011;41031;44.750;11.308;2022-12-29T08:13:32;89.33;;;47.37;;
55134;SDS011;41031;44.750;11.308;2022-12-29T08:15:59;95.07;;;47.23;;
55134;SDS011;41031;44.750;11.308;2022-12-29T08:18:26;85.03;;;45.20;;
55134;SDS011;41031;44.750;11.308;2022-12-29T08:20:53;89.40;;;47.30;;
55134;SDS011;41031;44.750;11.308;2022-12-29T08:23:21;88.63;;;45.40;;
55134;SDS011;41031;44.750;11.308;2022-12-29T08:25:56;87.20;;;45.27;;
55134;SDS011;41031;44.750;11.308;2022-12-29T08:28:24;88.90;;;48.77;;
55134;SDS011;41031;44.750;11.308;2022-12-29T08:30:51;94.57;;;47.40;;
55134;SDS011;41031;44.750;11.308;2022-12-29T08:33:19;86.37;;;45.73;;
55134;SDS011;41031;44.750;11.308;2022-12-29T08:35:46;88.40;;;46.60;;
55134;SDS011;41031;44.750;11.308;2022-12-29T08:38:13;80.97;;;47.73;;
55134;SDS011;41031;44.750;11.308;2022-12-29T08:40:42;96.80;;;47.50;;
55134;SDS011;41031;44.750;11.308;2022-12-29T08:43:10;89.87;;;46.90;;
55134;SDS011;41031;44.750;11.308;2022-12-29T08:45:42;86.93;;;47.33;;
55134;SDS011;41031;44.750;11.308;2022-12-29T08:48:09;87.47;;;49.10;;
55134;SDS011;41031;44.750;11.308;2022-12-29T08:50:36;97.97;;;49.67;;
55134;SDS011;41031;44.750;11.308;2022-12-29T08:53:03;93.20;;;47.40;;
55134;SDS011;41031;44.750;11.308;2022-12-29T08:55:30;95.20;;;47.13;;
55134;SDS011;41031;44.750;11.308;2022-12-29T08:57:57;99.80;;;49.10;;
55134;SDS011;41031;44.750;11.308;2022-12-29T09:00:24;86.63;;;46.27;;
55134;SDS011;41031;44.750;11.308;2022-12-29T09:02:51;92.77;;;47.97;;
55134;SDS011;41031;44.750;11.308;2022-12-29T09:05:19;100.23;;;48.50;;
55134;SDS011;41031;44.750;11.308;2022-12-29T09:07:46;89.00;;;47.97;;
55134;SDS011;41031;44.750;11.308;2022-12-29T09:10:13;101.50;;;49.73;;
55134;SDS011;41031;44.750;11.308;2022-12-29T09:12:40;82.73;;;45.47;;
55134;SDS011;41031;44.750;11.308;2022-12-29T09:15:07;95.87;;;48.33;;
55134;SDS011;41031;44.750;11.308;2022-12-29T09:17:35;110.50;;;50.50;;
55134;SDS011;41031;44.750;11.308;2022-12-29T09:20:11;94.53;;;48.17;;
55134;SDS011;41031;44.750;11.308;2022-12-29T09:22:39;100.93;;;49.27;;
55134;SDS011;41031;44.750;11.308;2022-12-29T09:25:07;104.87;;;49.47;;
55134;SDS011;41031;44.750;11.308;2022-12-29T09:27:35;114.43;;;51.27;;
55134;SDS011;41031;44.750;11.308;2022-12-29T09:30:04;110.50;;;52.63;;
55134;SDS011;41031;44.750;11.308;2022-12-29T09:32:33;111.67;;;50.23;;
55134;SDS011;41031;44.750;11.308;2022-12-29T09:35:09;101.67;;;50.10;;
55134;SDS011;41031;44.750;11.308;2022-12-29T09:37:36;106.53;;;49.77;;
55134;SDS011;41031;44.750;11.308;2022-12-29T09:40:04;103.73;;;50.47;;
55134;SDS011;41031;44.750;11.308;2022-12-29T09:42:35;98.80;;;49.97;;
55134;SDS011;41031;44.750;11.308;2022-12-29T09:47:42;106.57;;;52.47;;
55134;SDS011;41031;44.750;11.308;2022-12-29T09:50:14;101.70;;;50.63;;
55134;SDS011;41031;44.750;11.308;2022-12-29T09:52:58;96.33;;;49.37;;
55134;SDS011;41031;44.750;11.308;2022-12-29T09:55:50;119.17;;;51.67;;
55134;SDS011;41031;44.750;11.308;2022-12-29T09:58:28;104.83;;;48.77;;
55134;SDS011;41031;44.750;11.308;2022-12-29T10:01:07;104.63;;;50.10;;
55134;SDS011;41031;44.750;11.308;2022-12-29T10:03:51;118.57;;;53.30;;
55134;SDS011;41031;44.750;11.308;2022-12-29T10:23:26;124.93;;;53.10;;
55134;SDS011;41031;44.750;11.308;2022-12-29T10:26:09;132.80;;;55.13;;
55134;SDS011;41031;44.750;11.308;2022-12-29T10:31:24;111.97;;;52.90;;
55134;SDS011;41031;44.750;11.308;2022-12-29T10:33:58;122.30;;;52.97;;
55134;SDS011;41031;44.750;11.308;2022-12-29T10:36:38;125.33;;;53.30;;
55134;SDS011;41031;44.750;11.308;2022-12-29T10:39:22;110.17;;;51.50;;
55134;SDS011;41031;44.750;11.308;2022-12-29T10:42:03;118.07;;;52.77;;
55134;SDS011;41031;44.750;11.308;2022-12-29T10:44:40;112.90;;;51.43;;
55134;SDS011;41031;44.750;11.308;2022-12-29T10:47:19;116.93;;;50.40;;
55134;SDS011;41031;44.750;11.308;2022-12-29T10:49:49;109.40;;;47.20;;
55134;SDS011;41031;44.750;11.308;2022-12-29T10:52:17;92.73;;;47.70;;
55134;SDS011;41031;44.750;11.308;2022-12-29T10:54:58;93.93;;;47.97;;
55134;SDS011;41031;44.750;11.308;2022-12-29T10:57:31;88.20;;;45.50;;
55134;SDS011;41031;44.750;11.308;2022-12-29T11:00:01;84.83;;;43.57;;
55134;SDS011;41031;44.750;11.308;2022-12-29T11:08:02;83.30;;;43.97;;
55134;SDS011;41031;44.750;11.308;2022-12-29T11:10:41;92.13;;;43.90;;
55134;SDS011;41031;44.750;11.308;2022-12-29T11:13:17;72.13;;;38.10;;
55134;SDS011;41031;44.750;11.308;2022-12-29T11:15:46;74.70;;;39.57;;
55134;SDS011;41031;44.750;11.308;2022-12-29T11:20:47;66.93;;;37.00;;
55134;SDS011;41031;44.750;11.308;2022-12-29T11:28:43;64.07;;;35.33;;
55134;SDS011;41031;44.750;11.308;2022-12-29T11:31:15;57.50;;;31.90;;
55134;SDS011;41031;44.750;11.308;2022-12-29T11:33:44;51.53;;;28.77;;
55134;SDS011;41031;44.750;11.308;2022-12-29T11:36:17;47.87;;;29.13;;
55134;SDS011;41031;44.750;11.308;2022-12-29T11:38:49;48.20;;;28.93;;
55134;SDS011;41031;44.750;11.308;2022-12-29T11:41:28;45.90;;;28.40;;
55134;SDS011;41031;44.750;11.308;2022-12-29T11:43:57;48.53;;;28.23;;
55134;SDS011;41031;44.750;11.308;2022-12-29T11:46:31;41.27;;;25.93;;
55134;SDS011;41031;44.750;11.308;2022-12-29T11:49:01;40.37;;;27.13;;
55134;SDS011;41031;44.750;11.308;2022-12-29T11:51:37;45.53;;;26.87;;
55134;SDS011;41031;44.750;11.308;2022-12-29T11:54:10;43.73;;;27.27;;
55134;SDS011;41031;44.750;11.308;2022-12-29T11:56:47;41.03;;;27.30;;
55134;SDS011;41031;44.750;11.308;2022-12-29T12:01:58;41.90;;;28.47;;
55134;SDS011;41031;44.750;11.308;2022-12-29T12:04:30;46.03;;;28.17;;
55134;SDS011;41031;44.750;11.308;2022-12-29T12:07:12;47.47;;;27.87;;
55134;SDS011;41031;44.750;11.308;2022-12-29T12:09:45;43.20;;;27.07;;
55134;SDS011;41031;44.750;11.308;2022-12-29T12:12:22;42.53;;;27.43;;
55134;SDS011;41031;44.750;11.308;2022-12-29T12:15:13;45.90;;;27.97;;
55134;SDS011;41031;44.750;11.308;2022-12-29T12:20:57;45.23;;;28.30;;
55134;SDS011;41031;44.750;11.308;2022-12-29T12:23:32;46.27;;;27.27;;
55134;SDS011;41031;44.750;11.308;2022-12-29T12:26:15;42.27;;;26.63;;
55134;SDS011;41031;44.750;11.308;2022-12-29T12:28:56;48.37;;;30.30;;
55134;SDS011;41031;44.750;11.308;2022-12-29T12:31:56;47.90;;;29.17;;
55134;SDS011;41031;44.750;11.308;2022-12-29T12:34:35;47.77;;;27.63;;
55134;SDS011;41031;44.750;11.308;2022-12-29T12:40:20;43.20;;;28.77;;
55134;SDS011;41031;44.750;11.308;2022-12-29T12:46:07;53.17;;;30.30;;
55134;SDS011;41031;44.750;11.308;2022-12-29T12:57:45;43.73;;;29.67;;
55134;SDS011;41031;44.750;11.308;2022-12-29T13:00:16;46.77;;;29.53;;
55134;SDS011;41031;44.750;11.308;2022-12-29T13:02:59;52.60;;;30.03;;
55134;SDS011;41031;44.750;11.308;2022-12-29T13:08:49;44.43;;;28.73;;
55134;SDS011;41031;44.750;11.308;2022-12-29T13:22:56;47.50;;;27.17;;
55134;SDS011;41031;44.750;11.308;2022-12-29T13:30:50;40.60;;;26.10;;
55134;SDS011;41031;44.750;11.308;2022-12-29T13:36:23;43.23;;;26.67;;
55134;SDS011;41031;44.750;11.308;2022-12-29T13:39:05;46.33;;;26.13;;
55134;SDS011;41031;44.750;11.308;2022-12-29T13:41:51;43.40;;;27.00;;
55134;SDS011;41031;44.750;11.308;2022-12-29T13:44:24;45.73;;;26.37;;
55134;SDS011;41031;44.750;11.308;2022-12-29T13:47:18;48.07;;;28.57;;
55134;SDS011;41031;44.750;11.308;2022-12-29T13:49:51;46.27;;;28.37;;
55134;SDS011;41031;44.750;11.308;2022-12-29T13:52:40;45.50;;;27.87;;
55134;SDS011;41031;44.750;11.308;2022-12-29T14:00:31;44.13;;;28.30;;
55134;SDS011;41031;44.750;11.308;2022-12-29T14:06:20;45.70;;;26.60;;
55134;SDS011;41031;44.750;11.308;2022-12-29T14:08:49;46.97;;;27.30;;
55134;SDS011;41031;44.750;11.308;2022-12-29T14:11:20;51.10;;;27.80;;
55134;SDS011;41031;44.750;11.308;2022-12-29T14:13:51;47.30;;;27.53;;
55134;SDS011;41031;44.750;11.308;2022-12-29T14:19:05;49.47;;;27.63;;
55134;SDS011;41031;44.750;11.308;2022-12-29T14:21:38;47.00;;;29.93;;
55134;SDS011;41031;44.750;11.308;2022-12-29T14:29:49;40.30;;;26.73;;
55134;SDS011;41031;44.750;11.308;2022-12-29T14:34:59;46.80;;;27.57;;
55134;SDS011;41031;44.750;11.308;2022-12-29T14:37:47;45.10;;;27.77;;
55134;SDS011;41031;44.750;11.308;2022-12-29T14:40:23;43.77;;;27.43;;
55134;SDS011;41031;44.750;11.308;2022-12-29T14:42:55;45.93;;;27.83;;
55134;SDS011;41031;44.750;11.308;2022-12-29T14:45:27;45.70;;;26.33;;
55134;SDS011;41031;44.750;11.308;2022-12-29T14:47:55;47.53;;;28.33;;
55134;SDS011;41031;44.750;11.308;2022-12-29T14:50:24;48.73;;;28.10;;
55134;SDS011;41031;44.750;11.308;2022-12-29T14:55:36;42.63;;;27.23;;
55134;SDS011;41031;44.750;11.308;2022-12-29T14:58:51;39.47;;;25.97;;
55134;SDS011;41031;44.750;11.308;2022-12-29T15:01:05;48.43;;;27.73;;
55134;SDS011;41031;44.750;11.308;2022-12-29T15:03:54;45.20;;;27.80;;
55134;SDS011;41031;44.750;11.308;2022-12-29T15:06:24;49.10;;;27.33;;
55134;SDS011;41031;44.750;11.308;2022-12-29T15:09:00;42.00;;;26.77;;
55134;SDS011;41031;44.750;11.308;2022-12-29T15:14:03;43.53;;;27.10;;
55134;SDS011;41031;44.750;11.308;2022-12-29T15:16:50;43.77;;;26.77;;
55134;SDS011;41031;44.750;11.308;2022-12-29T15:19:23;42.63;;;26.23;;
55134;SDS011;41031;44.750;11.308;2022-12-29T15:21:54;39.83;;;26.23;;
55134;SDS011;41031;44.750;11.308;2022-12-29T15:24:23;39.97;;;26.13;;
55134;SDS011;41031;44.750;11.308;2022-12-29T15:26:51;42.87;;;26.33;;
55134;SDS011;41031;44.750;11.308;2022-12-29T15:29:33;38.63;;;24.73;;
55134;SDS011;41031;44.750;11.308;2022-12-29T15:32:17;46.47;;;25.43;;
55134;SDS011;41031;44.750;11.308;2022-12-29T15:34:47;41.17;;;26.00;;
55134;SDS011;41031;44.750;11.308;2022-12-29T15:37:21;42.67;;;26.53;;
55134;SDS011;41031;44.750;11.308;2022-12-29T15:39:50;42.47;;;26.47;;
55134;SDS011;41031;44.750;11.308;2022-12-29T15:42:22;47.57;;;26.27;;
55134;SDS011;41031;44.750;11.308;2022-12-29T15:44:54;42.83;;;26.63;;
55134;SDS011;41031;44.750;11.308;2022-12-29T15:47:35;41.00;;;25.00;;
55134;SDS011;41031;44.750;11.308;2022-12-29T15:50:04;41.10;;;25.93;;
55134;SDS011;41031;44.750;11.308;2022-12-29T15:52:43;43.23;;;26.07;;
55134;SDS011;41031;44.750;11.308;2022-12-29T15:55:18;41.97;;;27.97;;
55134;SDS011;41031;44.750;11.308;2022-12-29T15:57:58;40.63;;;26.53;;
55134;SDS011;41031;44.750;11.308;2022-12-29T16:02:57;41.20;;;26.50;;
55134;SDS011;41031;44.750;11.308;2022-12-29T16:05:36;40.00;;;25.37;;
55134;SDS011;41031;44.750;11.308;2022-12-29T16:10:59;47.37;;;26.77;;
55134;SDS011;41031;44.750;11.308;2022-12-29T16:13:32;46.90;;;26.57;;
55134;SDS011;41031;44.750;11.308;2022-12-29T16:16:11;45.97;;;27.97;;
55134;SDS011;41031;44.750;11.308;2022-12-29T16:18:51;52.40;;;27.83;;
55134;SDS011;41031;44.750;11.308;2022-12-29T16:21:28;47.70;;;27.77;;
55134;SDS011;41031;44.750;11.308;2022-12-29T16:24:04;48.47;;;28.87;;
55134;SDS011;41031;44.750;11.308;2022-12-29T16:26:36;45.17;;;27.20;;
55134;SDS011;41031;44.750;11.308;2022-12-29T16:29:05;51.27;;;29.57;;
55134;SDS011;41031;44.750;11.308;2022-12-29T16:31:35;49.60;;;29.30;;
55134;SDS011;41031;44.750;11.308;2022-12-29T16:34:13;45.97;;;29.13;;
55134;SDS011;41031;44.750;11.308;2022-12-29T16:36:56;52.00;;;28.57;;
55134;SDS011;41031;44.750;11.308;2022-12-29T16:41:54;56.37;;;31.30;;
55134;SDS011;41031;44.750;11.308;2022-12-29T16:44:22;50.03;;;29.77;;
55134;SDS011;41031;44.750;11.308;2022-12-29T16:49:38;54.47;;;29.77;;
55134;SDS011;41031;44.750;11.308;2022-12-29T16:52:14;49.60;;;29.77;;
55134;SDS011;41031;44.750;11.308;2022-12-29T16:54:58;53.93;;;30.83;;
55134;SDS011;41031;44.750;11.308;2022-12-29T16:57:33;49.00;;;29.90;;
55134;SDS011;41031;44.750;11.308;2022-12-29T17:00:04;56.00;;;31.30;;
55134;SDS011;41031;44.750;11.308;2022-12-29T17:02:34;57.10;;;30.67;;